sensor_id;sensor_type;location;lat;lon;timestamp;P1;durP1;ratioP1;P2;durP2;ratioP2
51594;SDS011;37677;53.254;6.594;2023-09-19T00:00:48;6.82;;;2.05;;
51594;SDS011;37677;53.254;6.594;2023-09-19T00:03:20;5.80;;;1.85;;
51594;SDS011;37677;53.254;6.594;2023-09-19T00:06:03;6.68;;;2.17;;
51594;SDS011;37677;53.254;6.594;2023-09-19T00:08:33;7.97;;;2.10;;
51594;SDS011;37677;53.254;6.594;2023-09-19T00:11:05;7.72;;;2.53;;
51594;SDS011;37677;53.254;6.594;2023-09-19T00:16:14;9.80;;;3.25;;
51594;SDS011;37677;53.254;6.594;2023-09-19T00:18:43;5.90;;;2.05;;
51594;SDS011;37677;53.254;6.594;2023-09-19T00:21:17;5.25;;;1.80;;
51594;SDS011;37677;53.254;6.594;2023-09-19T00:23:53;14.07;;;2.90;;
51594;SDS011;37677;53.254;6.594;2023-09-19T00:28:59;7.47;;;2.28;;
51594;SDS011;37677;53.254;6.594;2023-09-19T00:34:47;5.63;;;2.65;;
51594;SDS011;37677;53.254;6.594;2023-09-19T00:42:52;6.00;;;2.10;;
51594;SDS011;37677;53.254;6.594;2023-09-19T00:45:25;7.88;;;2.50;;
51594;SDS011;37677;53.254;6.594;2023-09-19T00:47:57;8.50;;;2.88;;
51594;SDS011;37677;53.254;6.594;2023-09-19T00:50:38;6.32;;;2.25;;
51594;SDS011;37677;53.254;6.594;2023-09-19T00:56:15;7.75;;;3.08;;
51594;SDS011;37677;53.254;6.594;2023-09-19T00:58:46;6.60;;;2.33;;
51594;SDS011;37677;53.254;6.594;2023-09-19T01:01:13;7.05;;;2.30;;
51594;SDS011;37677;53.254;6.594;2023-09-19T01:03:52;6.63;;;2.50;;
51594;SDS011;37677;53.254;6.594;2023-09-19T01:06:20;8.77;;;2.75;;
51594;SDS011;37677;53.254;6.594;2023-09-19T01:08:49;5.90;;;2.35;;
51594;SDS011;37677;53.254;6.594;2023-09-19T01:11:25;9.15;;;2.17;;
51594;SDS011;37677;53.254;6.594;2023-09-19T01:19:06;5.13;;;2.10;;
51594;SDS011;37677;53.254;6.594;2023-09-19T01:30:13;4.70;;;2.13;;
51594;SDS011;37677;53.254;6.594;2023-09-19T01:33:04;8.07;;;2.60;;
51594;SDS011;37677;53.254;6.594;2023-09-19T01:35:34;5.38;;;1.88;;
51594;SDS011;37677;53.254;6.594;2023-09-19T01:38:04;8.27;;;3.25;;
51594;SDS011;37677;53.254;6.594;2023-09-19T01:43:49;9.18;;;2.72;;
51594;SDS011;37677;53.254;6.594;2023-09-19T01:55:29;11.20;;;2.55;;
51594;SDS011;37677;53.254;6.594;2023-09-19T02:00:52;7.00;;;2.42;;
51594;SDS011;37677;53.254;6.594;2023-09-19T02:03:20;7.80;;;2.67;;
51594;SDS011;37677;53.254;6.594;2023-09-19T02:05:51;10.70;;;2.55;;
51594;SDS011;37677;53.254;6.594;2023-09-19T02:08:19;5.15;;;2.20;;
51594;SDS011;37677;53.254;6.594;2023-09-19T02:10:50;7.03;;;2.53;;
51594;SDS011;37677;53.254;6.594;2023-09-19T02:19:25;7.35;;;2.63;;
51594;SDS011;37677;53.254;6.594;2023-09-19T02:21:51;5.20;;;1.75;;
51594;SDS011;37677;53.254;6.594;2023-09-19T02:27:40;6.22;;;2.70;;
51594;SDS011;37677;53.254;6.594;2023-09-19T02:30:07;4.97;;;1.95;;
51594;SDS011;37677;53.254;6.594;2023-09-19T02:38:55;7.30;;;2.38;;
51594;SDS011;37677;53.254;6.594;2023-09-19T02:44:45;5.57;;;1.90;;
51594;SDS011;37677;53.254;6.594;2023-09-19T02:58:53;4.97;;;2.30;;
51594;SDS011;37677;53.254;6.594;2023-09-19T03:01:26;7.00;;;2.50;;
51594;SDS011;37677;53.254;6.594;2023-09-19T03:04:00;4.70;;;2.17;;
51594;SDS011;37677;53.254;6.594;2023-09-19T03:12:44;7.97;;;2.58;;
51594;SDS011;37677;53.254;6.594;2023-09-19T03:18:35;4.78;;;2.30;;
51594;SDS011;37677;53.254;6.594;2023-09-19T03:21:12;7.18;;;2.38;;
51594;SDS011;37677;53.254;6.594;2023-09-19T03:23:40;6.90;;;2.40;;
51594;SDS011;37677;53.254;6.594;2023-09-19T03:26:14;8.95;;;2.40;;
51594;SDS011;37677;53.254;6.594;2023-09-19T03:31:12;3.08;;;1.88;;
51594;SDS011;37677;53.254;6.594;2023-09-19T03:33:38;5.50;;;2.17;;
51594;SDS011;37677;53.254;6.594;2023-09-19T03:36:04;4.60;;;2.15;;
51594;SDS011;37677;53.254;6.594;2023-09-19T03:38:36;7.78;;;2.70;;
51594;SDS011;37677;53.254;6.594;2023-09-19T03:41:03;6.00;;;2.28;;
51594;SDS011;37677;53.254;6.594;2023-09-19T03:46:36;7.03;;;2.55;;
51594;SDS011;37677;53.254;6.594;2023-09-19T03:51:38;4.70;;;1.92;;
51594;SDS011;37677;53.254;6.594;2023-09-19T03:54:08;5.68;;;2.72;;
51594;SDS011;37677;53.254;6.594;2023-09-19T03:56:37;4.60;;;2.13;;
51594;SDS011;37677;53.254;6.594;2023-09-19T03:59:04;6.00;;;2.15;;
51594;SDS011;37677;53.254;6.594;2023-09-19T04:01:30;6.82;;;2.30;;
51594;SDS011;37677;53.254;6.594;2023-09-19T04:10:09;5.15;;;1.95;;
51594;SDS011;37677;53.254;6.594;2023-09-19T04:15:35;5.65;;;2.22;;
51594;SDS011;37677;53.254;6.594;2023-09-19T04:18:14;6.72;;;2.55;;
51594;SDS011;37677;53.254;6.594;2023-09-19T04:23:43;5.30;;;2.45;;
51594;SDS011;37677;53.254;6.594;2023-09-19T04:26:10;6.05;;;2.30;;
51594;SDS011;37677;53.254;6.594;2023-09-19T04:35:23;6.07;;;2.30;;
51594;SDS011;37677;53.254;6.594;2023-09-19T04:40:43;6.05;;;1.88;;
51594;SDS011;37677;53.254;6.594;2023-09-19T04:43:09;6.38;;;2.10;;
51594;SDS011;37677;53.254;6.594;2023-09-19T04:48:08;6.05;;;2.58;;
51594;SDS011;37677;53.254;6.594;2023-09-19T04:53:21;8.20;;;2.58;;
51594;SDS011;37677;53.254;6.594;2023-09-19T04:55:58;4.93;;;2.03;;
51594;SDS011;37677;53.254;6.594;2023-09-19T04:58:48;6.72;;;2.05;;
51594;SDS011;37677;53.254;6.594;2023-09-19T05:04:18;6.30;;;2.25;;
51594;SDS011;37677;53.254;6.594;2023-09-19T05:06:44;7.43;;;2.30;;
51594;SDS011;37677;53.254;6.594;2023-09-19T05:09:17;5.90;;;2.33;;
51594;SDS011;37677;53.254;6.594;2023-09-19T05:11:46;6.37;;;2.50;;
51594;SDS011;37677;53.254;6.594;2023-09-19T05:14:12;4.40;;;2.22;;
51594;SDS011;37677;53.254;6.594;2023-09-19T05:16:44;6.88;;;2.13;;
51594;SDS011;37677;53.254;6.594;2023-09-19T05:19:10;6.53;;;2.75;;
51594;SDS011;37677;53.254;6.594;2023-09-19T05:21:37;6.93;;;2.40;;
51594;SDS011;37677;53.254;6.594;2023-09-19T05:24:13;5.40;;;2.13;;
51594;SDS011;37677;53.254;6.594;2023-09-19T05:29:42;5.00;;;2.13;;
51594;SDS011;37677;53.254;6.594;2023-09-19T05:32:10;6.13;;;2.13;;
51594;SDS011;37677;53.254;6.594;2023-09-19T05:34:37;6.13;;;2.20;;
51594;SDS011;37677;53.254;6.594;2023-09-19T05:37:06;8.48;;;2.10;;
51594;SDS011;37677;53.254;6.594;2023-09-19T05:39:39;11.13;;;2.65;;
51594;SDS011;37677;53.254;6.594;2023-09-19T05:45:06;8.23;;;2.40;;
51594;SDS011;37677;53.254;6.594;2023-09-19T05:47:32;8.50;;;2.72;;
51594;SDS011;37677;53.254;6.594;2023-09-19T05:49:59;8.13;;;3.40;;
51594;SDS011;37677;53.254;6.594;2023-09-19T05:55:04;7.80;;;3.15;;
51594;SDS011;37677;53.254;6.594;2023-09-19T05:57:33;9.32;;;3.20;;
51594;SDS011;37677;53.254;6.594;2023-09-19T05:59:59;6.28;;;2.53;;
51594;SDS011;37677;53.254;6.594;2023-09-19T06:02:25;8.52;;;2.58;;
51594;SDS011;37677;53.254;6.594;2023-09-19T06:04:54;7.95;;;2.80;;
51594;SDS011;37677;53.254;6.594;2023-09-19T06:07:21;8.45;;;2.72;;
51594;SDS011;37677;53.254;6.594;2023-09-19T06:09:48;7.25;;;2.28;;
51594;SDS011;37677;53.254;6.594;2023-09-19T06:12:14;8.18;;;2.50;;
51594;SDS011;37677;53.254;6.594;2023-09-19T06:14:42;10.18;;;3.00;;
51594;SDS011;37677;53.254;6.594;2023-09-19T06:17:08;11.30;;;2.70;;
51594;SDS011;37677;53.254;6.594;2023-09-19T06:19:38;8.38;;;2.92;;
51594;SDS011;37677;53.254;6.594;2023-09-19T06:22:05;7.20;;;2.50;;
51594;SDS011;37677;53.254;6.594;2023-09-19T06:24:34;7.82;;;2.53;;
51594;SDS011;37677;53.254;6.594;2023-09-19T06:27:00;8.35;;;2.92;;
51594;SDS011;37677;53.254;6.594;2023-09-19T06:29:29;8.32;;;3.05;;
51594;SDS011;37677;53.254;6.594;2023-09-19T06:31:55;7.40;;;2.60;;
51594;SDS011;37677;53.254;6.594;2023-09-19T06:34:21;7.35;;;2.15;;
51594;SDS011;37677;53.254;6.594;2023-09-19T06:36:48;9.68;;;3.10;;
51594;SDS011;37677;53.254;6.594;2023-09-19T06:39:14;7.47;;;2.78;;
51594;SDS011;37677;53.254;6.594;2023-09-19T06:41:40;5.72;;;2.25;;
51594;SDS011;37677;53.254;6.594;2023-09-19T06:44:06;9.15;;;2.50;;
51594;SDS011;37677;53.254;6.594;2023-09-19T06:46:32;9.13;;;2.95;;
51594;SDS011;37677;53.254;6.594;2023-09-19T06:49:00;5.53;;;2.70;;
51594;SDS011;37677;53.254;6.594;2023-09-19T06:51:32;12.77;;;3.38;;
51594;SDS011;37677;53.254;6.594;2023-09-19T06:54:02;7.82;;;2.67;;
51594;SDS011;37677;53.254;6.594;2023-09-19T06:56:30;8.82;;;3.40;;
51594;SDS011;37677;53.254;6.594;2023-09-19T06:58:59;6.18;;;2.65;;
51594;SDS011;37677;53.254;6.594;2023-09-19T07:01:27;7.03;;;2.58;;
51594;SDS011;37677;53.254;6.594;2023-09-19T07:04:02;8.15;;;2.80;;
51594;SDS011;37677;53.254;6.594;2023-09-19T07:06:28;8.90;;;2.65;;
51594;SDS011;37677;53.254;6.594;2023-09-19T07:08:57;8.27;;;2.85;;
51594;SDS011;37677;53.254;6.594;2023-09-19T07:11:23;10.13;;;2.90;;
51594;SDS011;37677;53.254;6.594;2023-09-19T07:13:49;6.28;;;2.58;;
51594;SDS011;37677;53.254;6.594;2023-09-19T07:16:15;9.55;;;2.80;;
51594;SDS011;37677;53.254;6.594;2023-09-19T07:18:58;6.85;;;2.63;;
51594;SDS011;37677;53.254;6.594;2023-09-19T07:21:24;12.80;;;3.38;;
51594;SDS011;37677;53.254;6.594;2023-09-19T07:23:50;8.32;;;2.65;;
51594;SDS011;37677;53.254;6.594;2023-09-19T07:26:16;7.80;;;2.70;;
51594;SDS011;37677;53.254;6.594;2023-09-19T07:28:42;10.02;;;2.88;;
51594;SDS011;37677;53.254;6.594;2023-09-19T07:31:09;6.25;;;2.97;;
51594;SDS011;37677;53.254;6.594;2023-09-19T07:33:38;5.78;;;2.65;;
51594;SDS011;37677;53.254;6.594;2023-09-19T07:36:05;7.55;;;2.55;;
51594;SDS011;37677;53.254;6.594;2023-09-19T07:38:34;4.20;;;2.20;;
51594;SDS011;37677;53.254;6.594;2023-09-19T07:41:00;6.10;;;2.60;;
51594;SDS011;37677;53.254;6.594;2023-09-19T07:43:34;8.27;;;3.25;;
51594;SDS011;37677;53.254;6.594;2023-09-19T07:46:08;7.13;;;2.65;;
51594;SDS011;37677;53.254;6.594;2023-09-19T07:48:35;8.15;;;2.83;;
51594;SDS011;37677;53.254;6.594;2023-09-19T07:51:06;8.20;;;3.03;;
51594;SDS011;37677;53.254;6.594;2023-09-19T07:53:33;6.63;;;2.90;;
51594;SDS011;37677;53.254;6.594;2023-09-19T07:56:06;11.65;;;3.00;;
51594;SDS011;37677;53.254;6.594;2023-09-19T07:58:33;8.85;;;2.72;;
51594;SDS011;37677;53.254;6.594;2023-09-19T08:01:04;10.52;;;3.40;;
51594;SDS011;37677;53.254;6.594;2023-09-19T08:03:30;8.70;;;3.33;;
51594;SDS011;37677;53.254;6.594;2023-09-19T08:06:07;7.75;;;2.85;;
51594;SDS011;37677;53.254;6.594;2023-09-19T08:08:33;10.57;;;3.70;;
51594;SDS011;37677;53.254;6.594;2023-09-19T08:11:05;10.98;;;3.60;;
51594;SDS011;37677;53.254;6.594;2023-09-19T08:13:38;10.45;;;2.95;;
51594;SDS011;37677;53.254;6.594;2023-09-19T08:16:15;7.78;;;2.72;;
51594;SDS011;37677;53.254;6.594;2023-09-19T08:18:41;10.73;;;3.08;;
51594;SDS011;37677;53.254;6.594;2023-09-19T08:21:08;7.97;;;2.92;;
51594;SDS011;37677;53.254;6.594;2023-09-19T08:23:36;9.00;;;3.45;;
51594;SDS011;37677;53.254;6.594;2023-09-19T08:26:03;9.13;;;3.30;;
51594;SDS011;37677;53.254;6.594;2023-09-19T08:28:33;10.20;;;3.00;;
51594;SDS011;37677;53.254;6.594;2023-09-19T08:31:06;7.00;;;2.80;;
51594;SDS011;37677;53.254;6.594;2023-09-19T08:33:32;8.52;;;3.10;;
51594;SDS011;37677;53.254;6.594;2023-09-19T08:35:59;8.50;;;2.97;;
51594;SDS011;37677;53.254;6.594;2023-09-19T08:38:25;11.27;;;3.17;;
51594;SDS011;37677;53.254;6.594;2023-09-19T08:41:05;10.02;;;2.75;;
51594;SDS011;37677;53.254;6.594;2023-09-19T08:43:34;6.50;;;2.63;;
51594;SDS011;37677;53.254;6.594;2023-09-19T08:46:10;8.52;;;3.33;;
51594;SDS011;37677;53.254;6.594;2023-09-19T08:48:53;7.50;;;2.75;;
51594;SDS011;37677;53.254;6.594;2023-09-19T08:51:26;6.35;;;2.63;;
51594;SDS011;37677;53.254;6.594;2023-09-19T08:56:24;7.60;;;3.20;;
51594;SDS011;37677;53.254;6.594;2023-09-19T08:58:59;11.43;;;3.35;;
51594;SDS011;37677;53.254;6.594;2023-09-19T09:01:29;9.18;;;2.97;;
51594;SDS011;37677;53.254;6.594;2023-09-19T09:04:00;9.32;;;2.90;;
51594;SDS011;37677;53.254;6.594;2023-09-19T09:06:30;9.70;;;3.30;;
51594;SDS011;37677;53.254;6.594;2023-09-19T09:09:02;6.72;;;2.58;;
51594;SDS011;37677;53.254;6.594;2023-09-19T09:11:28;7.50;;;2.78;;
51594;SDS011;37677;53.254;6.594;2023-09-19T09:13:54;9.88;;;2.97;;
51594;SDS011;37677;53.254;6.594;2023-09-19T09:16:24;10.82;;;2.90;;
51594;SDS011;37677;53.254;6.594;2023-09-19T09:18:51;8.48;;;3.20;;
51594;SDS011;37677;53.254;6.594;2023-09-19T09:21:19;14.35;;;3.25;;
51594;SDS011;37677;53.254;6.594;2023-09-19T09:23:46;11.02;;;3.28;;
51594;SDS011;37677;53.254;6.594;2023-09-19T09:26:12;12.35;;;3.70;;
51594;SDS011;37677;53.254;6.594;2023-09-19T09:28:45;9.63;;;3.38;;
51594;SDS011;37677;53.254;6.594;2023-09-19T09:31:24;7.25;;;3.00;;
51594;SDS011;37677;53.254;6.594;2023-09-19T09:33:54;9.13;;;3.28;;
51594;SDS011;37677;53.254;6.594;2023-09-19T09:36:39;7.95;;;3.13;;
51594;SDS011;37677;53.254;6.594;2023-09-19T09:39:06;9.10;;;3.95;;
51594;SDS011;37677;53.254;6.594;2023-09-19T09:41:50;11.93;;;3.30;;
51594;SDS011;37677;53.254;6.594;2023-09-19T09:44:16;11.80;;;4.15;;
51594;SDS011;37677;53.254;6.594;2023-09-19T09:46:44;15.52;;;3.97;;
51594;SDS011;37677;53.254;6.594;2023-09-19T09:49:23;10.68;;;3.55;;
51594;SDS011;37677;53.254;6.594;2023-09-19T09:52:04;13.90;;;3.90;;
51594;SDS011;37677;53.254;6.594;2023-09-19T09:54:57;9.93;;;3.15;;
51594;SDS011;37677;53.254;6.594;2023-09-19T09:57:24;10.38;;;3.88;;
51594;SDS011;37677;53.254;6.594;2023-09-19T09:59:51;11.50;;;3.67;;
51594;SDS011;37677;53.254;6.594;2023-09-19T10:02:35;13.00;;;3.88;;
51594;SDS011;37677;53.254;6.594;2023-09-19T10:07:46;10.18;;;3.78;;
51594;SDS011;37677;53.254;6.594;2023-09-19T10:10:29;12.07;;;4.05;;
51594;SDS011;37677;53.254;6.594;2023-09-19T10:13:05;11.20;;;3.42;;
51594;SDS011;37677;53.254;6.594;2023-09-19T10:15:33;11.10;;;3.20;;
51594;SDS011;37677;53.254;6.594;2023-09-19T10:18:05;11.95;;;3.45;;
51594;SDS011;37677;53.254;6.594;2023-09-19T10:20:33;12.05;;;3.20;;
51594;SDS011;37677;53.254;6.594;2023-09-19T10:23:06;9.43;;;3.10;;
51594;SDS011;37677;53.254;6.594;2023-09-19T10:25:42;9.70;;;3.28;;
51594;SDS011;37677;53.254;6.594;2023-09-19T10:28:08;8.55;;;3.35;;
51594;SDS011;37677;53.254;6.594;2023-09-19T10:30:43;9.10;;;3.92;;
51594;SDS011;37677;53.254;6.594;2023-09-19T10:33:13;12.85;;;4.07;;
51594;SDS011;37677;53.254;6.594;2023-09-19T10:35:42;10.43;;;3.33;;
51594;SDS011;37677;53.254;6.594;2023-09-19T10:38:14;9.90;;;3.40;;
51594;SDS011;37677;53.254;6.594;2023-09-19T10:40:52;8.93;;;3.50;;
51594;SDS011;37677;53.254;6.594;2023-09-19T10:43:19;10.23;;;3.67;;
51594;SDS011;37677;53.254;6.594;2023-09-19T10:45:46;8.02;;;3.55;;
51594;SDS011;37677;53.254;6.594;2023-09-19T10:48:15;8.70;;;3.33;;
51594;SDS011;37677;53.254;6.594;2023-09-19T10:53:29;8.63;;;3.30;;
51594;SDS011;37677;53.254;6.594;2023-09-19T10:55:58;11.68;;;3.70;;
51594;SDS011;37677;53.254;6.594;2023-09-19T10:58:26;11.20;;;3.83;;
51594;SDS011;37677;53.254;6.594;2023-09-19T11:00:54;10.15;;;3.70;;
51594;SDS011;37677;53.254;6.594;2023-09-19T11:03:22;11.88;;;3.60;;
51594;SDS011;37677;53.254;6.594;2023-09-19T11:08:30;8.10;;;2.83;;
51594;SDS011;37677;53.254;6.594;2023-09-19T11:11:00;10.50;;;3.58;;
51594;SDS011;37677;53.254;6.594;2023-09-19T11:13:29;10.52;;;3.80;;
51594;SDS011;37677;53.254;6.594;2023-09-19T11:26:47;11.15;;;4.30;;
51594;SDS011;37677;53.254;6.594;2023-09-19T11:29:27;11.68;;;3.70;;
51594;SDS011;37677;53.254;6.594;2023-09-19T11:31:54;11.25;;;3.88;;
51594;SDS011;37677;53.254;6.594;2023-09-19T11:34:37;9.77;;;3.50;;
51594;SDS011;37677;53.254;6.594;2023-09-19T11:39:38;13.03;;;3.60;;
51594;SDS011;37677;53.254;6.594;2023-09-19T11:42:50;9.23;;;3.53;;
51594;SDS011;37677;53.254;6.594;2023-09-19T11:44:52;19.33;;;4.18;;
51594;SDS011;37677;53.254;6.594;2023-09-19T11:47:21;11.60;;;3.33;;
51594;SDS011;37677;53.254;6.594;2023-09-19T11:49:50;7.35;;;2.97;;
51594;SDS011;37677;53.254;6.594;2023-09-19T11:52:21;9.40;;;3.13;;
51594;SDS011;37677;53.254;6.594;2023-09-19T11:54:55;10.25;;;2.92;;
51594;SDS011;37677;53.254;6.594;2023-09-19T11:57:22;9.82;;;3.63;;
51594;SDS011;37677;53.254;6.594;2023-09-19T11:59:51;11.55;;;3.20;;
51594;SDS011;37677;53.254;6.594;2023-09-19T12:02:27;8.75;;;3.60;;
51594;SDS011;37677;53.254;6.594;2023-09-19T12:04:59;13.90;;;3.85;;
51594;SDS011;37677;53.254;6.594;2023-09-19T12:07:25;11.82;;;4.07;;
51594;SDS011;37677;53.254;6.594;2023-09-19T12:10:02;16.08;;;3.67;;
51594;SDS011;37677;53.254;6.594;2023-09-19T12:12:29;9.07;;;3.67;;
51594;SDS011;37677;53.254;6.594;2023-09-19T12:14:57;9.18;;;2.95;;
51594;SDS011;37677;53.254;6.594;2023-09-19T12:17:39;8.93;;;3.45;;
51594;SDS011;37677;53.254;6.594;2023-09-19T12:20:10;8.48;;;2.65;;
51594;SDS011;37677;53.254;6.594;2023-09-19T12:22:41;11.27;;;3.90;;
51594;SDS011;37677;53.254;6.594;2023-09-19T12:25:09;13.45;;;3.55;;
51594;SDS011;37677;53.254;6.594;2023-09-19T12:27:46;13.57;;;3.58;;
51594;SDS011;37677;53.254;6.594;2023-09-19T12:30:13;13.55;;;3.88;;
51594;SDS011;37677;53.254;6.594;2023-09-19T12:32:39;8.60;;;2.90;;
51594;SDS011;37677;53.254;6.594;2023-09-19T12:35:07;12.68;;;3.90;;
51594;SDS011;37677;53.254;6.594;2023-09-19T12:37:36;7.55;;;2.88;;
51594;SDS011;37677;53.254;6.594;2023-09-19T12:40:12;8.23;;;2.72;;
51594;SDS011;37677;53.254;6.594;2023-09-19T12:42:42;8.88;;;3.10;;
51594;SDS011;37677;53.254;6.594;2023-09-19T12:45:10;10.93;;;2.70;;
51594;SDS011;37677;53.254;6.594;2023-09-19T12:47:39;7.50;;;2.75;;
51594;SDS011;37677;53.254;6.594;2023-09-19T13:00:40;6.05;;;2.45;;
51594;SDS011;37677;53.254;6.594;2023-09-19T13:03:14;6.35;;;2.90;;
51594;SDS011;37677;53.254;6.594;2023-09-19T13:06:10;8.23;;;2.40;;
51594;SDS011;37677;53.254;6.594;2023-09-19T13:08:37;10.45;;;3.20;;
51594;SDS011;37677;53.254;6.594;2023-09-19T13:11:06;8.23;;;2.05;;
51594;SDS011;37677;53.254;6.594;2023-09-19T13:13:37;6.78;;;2.60;;
51594;SDS011;37677;53.254;6.594;2023-09-19T13:16:04;11.82;;;3.30;;
51594;SDS011;37677;53.254;6.594;2023-09-19T13:18:46;9.52;;;2.88;;
51594;SDS011;37677;53.254;6.594;2023-09-19T13:21:29;10.18;;;3.22;;
51594;SDS011;37677;53.254;6.594;2023-09-19T13:24:22;8.52;;;3.00;;
51594;SDS011;37677;53.254;6.594;2023-09-19T13:26:47;7.25;;;2.65;;
51594;SDS011;37677;53.254;6.594;2023-09-19T13:29:14;9.45;;;2.58;;
51594;SDS011;37677;53.254;6.594;2023-09-19T13:31:47;8.90;;;2.20;;
51594;SDS011;37677;53.254;6.594;2023-09-19T13:34:14;7.10;;;2.92;;
51594;SDS011;37677;53.254;6.594;2023-09-19T13:36:47;6.38;;;2.55;;
51594;SDS011;37677;53.254;6.594;2023-09-19T13:39:16;7.68;;;2.72;;
51594;SDS011;37677;53.254;6.594;2023-09-19T13:41:49;8.45;;;2.30;;
51594;SDS011;37677;53.254;6.594;2023-09-19T13:44:15;8.45;;;2.75;;
51594;SDS011;37677;53.254;6.594;2023-09-19T13:46:49;9.98;;;3.05;;
51594;SDS011;37677;53.254;6.594;2023-09-19T13:49:16;11.20;;;2.70;;
51594;SDS011;37677;53.254;6.594;2023-09-19T13:51:49;9.05;;;2.65;;
51594;SDS011;37677;53.254;6.594;2023-09-19T13:57:08;4.90;;;1.88;;
51594;SDS011;37677;53.254;6.594;2023-09-19T13:59:40;6.65;;;2.55;;
51594;SDS011;37677;53.254;6.594;2023-09-19T14:02:06;5.28;;;1.90;;
51594;SDS011;37677;53.254;6.594;2023-09-19T14:04:32;4.97;;;1.75;;
51594;SDS011;37677;53.254;6.594;2023-09-19T14:07:09;5.13;;;1.75;;
51594;SDS011;37677;53.254;6.594;2023-09-19T14:12:36;5.65;;;2.00;;
51594;SDS011;37677;53.254;6.594;2023-09-19T14:18:04;8.93;;;1.85;;
51594;SDS011;37677;53.254;6.594;2023-09-19T14:20:37;6.82;;;1.85;;
51594;SDS011;37677;53.254;6.594;2023-09-19T14:28:49;3.70;;;1.63;;
51594;SDS011;37677;53.254;6.594;2023-09-19T14:31:15;6.32;;;2.58;;
51594;SDS011;37677;53.254;6.594;2023-09-19T14:33:52;3.92;;;1.90;;
51594;SDS011;37677;53.254;6.594;2023-09-19T14:36:21;3.45;;;1.50;;
51594;SDS011;37677;53.254;6.594;2023-09-19T14:38:52;7.13;;;2.20;;
51594;SDS011;37677;53.254;6.594;2023-09-19T14:41:20;7.57;;;2.03;;
51594;SDS011;37677;53.254;6.594;2023-09-19T14:43:49;5.00;;;2.47;;
51594;SDS011;37677;53.254;6.594;2023-09-19T14:46:15;5.47;;;2.25;;
51594;SDS011;37677;53.254;6.594;2023-09-19T14:48:41;5.72;;;2.22;;
51594;SDS011;37677;53.254;6.594;2023-09-19T14:51:09;3.95;;;1.88;;
51594;SDS011;37677;53.254;6.594;2023-09-19T14:53:37;5.55;;;2.22;;
51594;SDS011;37677;53.254;6.594;2023-09-19T14:56:07;6.45;;;2.08;;
51594;SDS011;37677;53.254;6.594;2023-09-19T14:58:34;6.07;;;2.08;;
51594;SDS011;37677;53.254;6.594;2023-09-19T15:01:06;4.40;;;1.77;;
51594;SDS011;37677;53.254;6.594;2023-09-19T15:03:33;4.68;;;1.67;;
51594;SDS011;37677;53.254;6.594;2023-09-19T15:06:06;5.22;;;2.03;;
51594;SDS011;37677;53.254;6.594;2023-09-19T15:08:34;5.28;;;2.20;;
51594;SDS011;37677;53.254;6.594;2023-09-19T15:11:00;3.80;;;1.83;;
51594;SDS011;37677;53.254;6.594;2023-09-19T15:13:35;6.55;;;2.17;;
51594;SDS011;37677;53.254;6.594;2023-09-19T15:19:09;5.00;;;1.92;;
51594;SDS011;37677;53.254;6.594;2023-09-19T15:21:36;7.18;;;2.38;;
51594;SDS011;37677;53.254;6.594;2023-09-19T15:24:18;5.55;;;1.80;;
51594;SDS011;37677;53.254;6.594;2023-09-19T15:26:52;4.40;;;2.10;;
51594;SDS011;37677;53.254;6.594;2023-09-19T15:29:30;4.05;;;2.10;;
51594;SDS011;37677;53.254;6.594;2023-09-19T15:32:08;3.45;;;1.70;;
51594;SDS011;37677;53.254;6.594;2023-09-19T15:34:35;7.07;;;2.03;;
51594;SDS011;37677;53.254;6.594;2023-09-19T15:37:04;4.00;;;2.00;;
51594;SDS011;37677;53.254;6.594;2023-09-19T15:39:30;4.57;;;1.60;;
51594;SDS011;37677;53.254;6.594;2023-09-19T15:42:02;6.00;;;2.20;;
51594;SDS011;37677;53.254;6.594;2023-09-19T15:44:28;6.22;;;2.08;;
51594;SDS011;37677;53.254;6.594;2023-09-19T15:49:35;5.32;;;1.85;;
51594;SDS011;37677;53.254;6.594;2023-09-19T15:52:09;6.13;;;2.08;;
51594;SDS011;37677;53.254;6.594;2023-09-19T15:54:36;4.78;;;1.95;;
51594;SDS011;37677;53.254;6.594;2023-09-19T15:57:07;7.78;;;2.78;;
51594;SDS011;37677;53.254;6.594;2023-09-19T15:59:35;6.07;;;1.90;;
51594;SDS011;37677;53.254;6.594;2023-09-19T16:02:07;5.70;;;2.20;;
51594;SDS011;37677;53.254;6.594;2023-09-19T16:04:39;6.53;;;1.90;;
51594;SDS011;37677;53.254;6.594;2023-09-19T16:10:06;5.90;;;2.08;;
51594;SDS011;37677;53.254;6.594;2023-09-19T16:12:36;5.03;;;2.35;;
51594;SDS011;37677;53.254;6.594;2023-09-19T16:15:05;6.25;;;2.50;;
51594;SDS011;37677;53.254;6.594;2023-09-19T16:17:35;7.40;;;1.90;;
51594;SDS011;37677;53.254;6.594;2023-09-19T16:20:08;8.15;;;2.35;;
51594;SDS011;37677;53.254;6.594;2023-09-19T16:22:41;6.72;;;1.90;;
51594;SDS011;37677;53.254;6.594;2023-09-19T16:25:09;8.23;;;2.55;;
51594;SDS011;37677;53.254;6.594;2023-09-19T16:27:36;6.93;;;2.38;;
51594;SDS011;37677;53.254;6.594;2023-09-19T16:30:03;4.82;;;2.10;;
51594;SDS011;37677;53.254;6.594;2023-09-19T16:32:33;4.18;;;2.00;;
51594;SDS011;37677;53.254;6.594;2023-09-19T16:34:59;3.35;;;2.17;;
51594;SDS011;37677;53.254;6.594;2023-09-19T16:37:25;4.07;;;1.92;;
51594;SDS011;37677;53.254;6.594;2023-09-19T16:39:51;5.93;;;2.22;;
51594;SDS011;37677;53.254;6.594;2023-09-19T16:42:20;4.82;;;1.90;;
51594;SDS011;37677;53.254;6.594;2023-09-19T16:44:47;7.50;;;2.17;;
51594;SDS011;37677;53.254;6.594;2023-09-19T16:47:13;4.20;;;1.92;;
51594;SDS011;37677;53.254;6.594;2023-09-19T16:49:40;5.80;;;2.17;;
51594;SDS011;37677;53.254;6.594;2023-09-19T16:52:06;4.18;;;2.20;;
51594;SDS011;37677;53.254;6.594;2023-09-19T16:54:32;3.70;;;1.90;;
51594;SDS011;37677;53.254;6.594;2023-09-19T16:56:59;4.68;;;2.10;;
51594;SDS011;37677;53.254;6.594;2023-09-19T16:59:27;6.47;;;1.90;;
51594;SDS011;37677;53.254;6.594;2023-09-19T17:01:53;3.95;;;1.90;;
51594;SDS011;37677;53.254;6.594;2023-09-19T17:04:22;6.18;;;2.00;;
51594;SDS011;37677;53.254;6.594;2023-09-19T17:06:49;5.13;;;2.15;;
51594;SDS011;37677;53.254;6.594;2023-09-19T17:09:15;5.97;;;2.30;;
51594;SDS011;37677;53.254;6.594;2023-09-19T17:11:43;5.82;;;2.42;;
51594;SDS011;37677;53.254;6.594;2023-09-19T17:14:11;6.10;;;2.30;;
51594;SDS011;37677;53.254;6.594;2023-09-19T17:16:37;4.65;;;2.30;;
51594;SDS011;37677;53.254;6.594;2023-09-19T17:19:03;5.03;;;2.88;;
51594;SDS011;37677;53.254;6.594;2023-09-19T17:21:29;6.82;;;2.45;;
51594;SDS011;37677;53.254;6.594;2023-09-19T17:23:59;5.45;;;2.70;;
51594;SDS011;37677;53.254;6.594;2023-09-19T17:26:28;6.82;;;2.50;;
51594;SDS011;37677;53.254;6.594;2023-09-19T17:28:55;9.98;;;2.83;;
51594;SDS011;37677;53.254;6.594;2023-09-19T17:31:22;3.88;;;2.35;;
51594;SDS011;37677;53.254;6.594;2023-09-19T17:33:49;5.55;;;2.33;;
51594;SDS011;37677;53.254;6.594;2023-09-19T17:36:23;4.57;;;2.35;;
51594;SDS011;37677;53.254;6.594;2023-09-19T17:38:51;5.93;;;2.33;;
51594;SDS011;37677;53.254;6.594;2023-09-19T17:41:21;5.60;;;2.45;;
51594;SDS011;37677;53.254;6.594;2023-09-19T17:43:55;6.70;;;2.60;;
51594;SDS011;37677;53.254;6.594;2023-09-19T17:46:21;6.13;;;2.58;;
51594;SDS011;37677;53.254;6.594;2023-09-19T17:48:55;6.85;;;2.58;;
51594;SDS011;37677;53.254;6.594;2023-09-19T17:51:22;5.72;;;2.40;;
51594;SDS011;37677;53.254;6.594;2023-09-19T17:53:48;5.88;;;2.65;;
51594;SDS011;37677;53.254;6.594;2023-09-19T17:56:15;7.18;;;2.90;;
51594;SDS011;37677;53.254;6.594;2023-09-19T17:58:45;6.40;;;2.75;;
51594;SDS011;37677;53.254;6.594;2023-09-19T18:01:20;5.93;;;2.75;;
51594;SDS011;37677;53.254;6.594;2023-09-19T18:03:48;9.32;;;2.67;;
51594;SDS011;37677;53.254;6.594;2023-09-19T18:06:22;6.15;;;2.75;;
51594;SDS011;37677;53.254;6.594;2023-09-19T18:08:48;6.63;;;2.83;;
51594;SDS011;37677;53.254;6.594;2023-09-19T18:11:15;5.13;;;2.47;;
51594;SDS011;37677;53.254;6.594;2023-09-19T18:13:45;5.68;;;2.47;;